Time;durP1;ratioP1;P1;durP2;ratioP2;P2;SDS_P1;SDS_P2;PMS_P1;PMS_P2;Temp;Humidity;BMP_temperature;BMP_pressure;BME280_temperature;BME280_humidity;BME280_pressure;Samples;Min_cycle;Max_cycle;Signal;HPM_P1;HPM_P2
2021/09/29 00:11:52;;;;;;;4.03;2.65;;;21.90;51.80;;;;;;31261853;28;20045;-46
2021/09/29 00:26:54;;;;;;;4.13;2.78;;;21.90;51.70;;;;;;31249513;28;20176;-47
2021/09/29 00:41:56;;;;;;;5.25;3.00;;;21.80;52.10;;;;;;31248416;28;20057;-53
2021/09/29 00:56:58;;;;;;;4.60;2.78;;;21.90;51.80;;;;;;31257871;28;20077;-52
2021/09/29 01:12:13;;;;;;;5.30;2.90;;;21.90;51.90;;;;;;31256720;28;20050;-51
2021/09/29 01:27:16;;;;;;;5.15;3.03;;;21.80;52.00;;;;;;31254971;28;20046;-52
2021/09/29 01:42:18;;;;;;;3.53;2.60;;;21.80;52.30;;;;;;31270301;28;20081;-49
2021/09/29 01:57:20;;;;;;;5.63;2.78;;;21.80;52.30;;;;;;31278119;28;20042;-53
2021/09/29 02:12:22;;;;;;;3.47;2.60;;;21.80;52.10;;;;;;31276026;28;20042;-49
2021/09/29 02:27:25;;;;;;;5.20;2.88;;;21.80;51.60;;;;;;31274175;28;20057;-48
2021/09/29 02:42:27;;;;;;;3.42;2.75;;;21.80;51.90;;;;;;31272091;28;20081;-49
2021/09/29 02:57:29;;;;;;;5.28;2.83;;;21.80;52.00;;;;;;31267228;28;20038;-55
2021/09/29 03:12:31;;;;;;;4.32;2.78;;;21.80;52.00;;;;;;31264676;28;20097;-46
2021/09/29 03:27:33;;;;;;;3.00;2.45;;;21.80;52.30;;;;;;31256953;28;20120;-44
2021/09/29 03:42:36;;;;;;;2.88;2.60;;;21.70;52.10;;;;;;31255210;28;20101;-43
2021/09/29 03:57:39;;;;;;;7.47;3.00;;;21.80;52.00;;;;;;31253266;28;20069;-43
2021/09/29 04:12:42;;;;;;;5.30;3.00;;;21.70;52.20;;;;;;31252121;28;20053;-43
2021/09/29 04:27:44;;;;;;;5.38;2.92;;;21.70;51.90;;;;;;31258566;28;20097;-46
2021/09/29 04:42:47;;;;;;;47.97;6.32;;;21.70;52.00;;;;;;31253496;28;20058;-48
2021/09/29 04:57:49;;;;;;;38.90;21.45;;;21.70;52.90;;;;;;31246427;28;20037;-57
2021/09/29 05:12:52;;;;;;;57.15;30.38;;;21.80;55.70;;;;;;31245710;28;20088;-57
2021/09/29 05:27:56;;;;;;;39.22;26.33;;;21.60;54.70;;;;;;31245007;28;20169;-56
2021/09/29 05:42:58;;;;;;;57.97;42.85;;;21.70;51.80;;;;;;31243717;28;20053;-57
2021/09/29 05:58:00;;;;;;;30.65;20.60;;;22.30;51.00;;;;;;31243623;28;20076;-57
2021/09/29 06:13:02;;;;;;;32.58;24.20;;;22.30;49.50;;;;;;31240302;28;20046;-56
2021/09/29 06:28:05;;;;;;;23.50;15.13;;;22.10;49.70;;;;;;31259207;28;20069;-53
2021/09/29 06:43:07;;;;;;;21.45;9.35;;;22.00;49.40;;;;;;31262324;28;20061;-56
2021/09/29 06:58:09;;;;;;;36.60;23.45;;;21.90;47.60;;;;;;31261528;28;20073;-51
2021/09/29 07:13:11;;;;;;;25.25;15.73;;;21.90;47.80;;;;;;31265018;28;20052;-59
2021/09/29 07:28:13;;;;;;;20.88;12.73;;;21.80;48.00;;;;;;31256474;28;20119;-60
2021/09/29 07:43:15;;;;;;;21.65;10.10;;;21.80;47.90;;;;;;31259869;28;20073;-50
2021/09/29 07:58:17;;;;;;;18.38;10.38;;;21.70;47.90;;;;;;31260814;28;20097;-49
2021/09/29 08:13:19;;;;;;;12.85;8.38;;;21.80;48.50;;;;;;31258302;28;20041;-47
2021/09/29 09:29:09;;;;;;;41.47;26.70;;;21.50;45.70;;;;;;31358376;28;20041;-53
2021/09/29 09:44:11;;;;;;;22.25;8.10;;;21.40;42.60;;;;;;31357600;28;20053;-59
2021/09/29 09:59:14;;;;;;;18.05;7.28;;;21.50;43.40;;;;;;31368744;28;20591;-58
2021/09/29 10:29:20;;;;;;;18.00;5.00;;;21.60;44.50;;;;;;31271521;28;20052;-57
2021/09/29 10:44:31;;;;;;;11.13;4.95;;;21.50;43.30;;;;;;31265128;28;20398;-57
2021/09/29 11:32:00;;;;;;;15.60;3.90;;;21.50;46.70;;;;;;31259400;28;20069;-55
2021/09/29 12:17:11;;;;;;;15.98;3.65;;;22.20;40.80;;;;;;31260436;28;20046;-48
2021/09/29 13:02:34;;;;;;;12.52;3.58;;;21.90;41.30;;;;;;31252757;28;20070;-46
2021/09/29 13:17:37;;;;;;;20.98;3.70;;;21.70;41.60;;;;;;31248983;28;20065;-49
2021/09/29 13:48:04;;;;;;;19.10;4.47;;;21.70;41.10;;;;;;31261024;28;20081;-52
2021/09/29 14:33:44;;;;;;;39.78;16.58;;;22.80;45.50;;;;;;31257495;28;20090;-52
2021/09/29 14:48:46;;;;;;;38.07;15.97;;;22.80;49.30;;;;;;31265626;28;20129;-54
2021/09/29 15:03:49;;;;;;;39.40;15.73;;;22.70;49.40;;;;;;31261792;28;20113;-53
2021/09/29 16:19:57;;;;;;;24.33;11.65;;;23.00;50.90;;;;;;31261686;28;20078;-48
2021/09/29 16:50:16;;;;;;;35.28;9.85;;;23.10;52.10;;;;;;31257818;28;20057;-48
2021/09/29 17:05:19;;;;;;;24.30;9.63;;;23.00;52.60;;;;;;31254490;28;20100;-48
2021/09/29 17:20:22;;;;;;;27.98;10.55;;;23.00;53.50;;;;;;31252575;28;20053;-42
2021/09/29 17:35:36;;;;;;;26.80;8.50;;;22.90;55.20;;;;;;31247105;28;20072;-47
2021/09/29 18:21:08;;;;;;;19.17;9.02;;;22.70;56.30;;;;;;31256338;28;20121;-53
2021/09/29 18:36:12;;;;;;;18.35;8.38;;;22.70;56.30;;;;;;31260720;28;20053;-46
2021/09/29 18:51:14;;;;;;;17.50;7.30;;;22.70;54.60;;;;;;31268173;28;20113;-45
2021/09/29 19:21:40;;;;;;;12.70;6.43;;;22.70;54.10;;;;;;31265399;28;20042;-44
2021/09/29 19:36:43;;;;;;;12.90;6.47;;;22.70;54.30;;;;;;31263113;28;20061;-56
2021/09/29 20:22:07;;;;;;;25.75;17.95;;;22.60;54.40;;;;;;31199914;28;20050;-46
2021/09/29 20:52:32;;;;;;;26.15;16.95;;;22.70;53.80;;;;;;31162241;28;20054;-44
2021/09/29 21:07:39;;;;;;;21.15;16.23;;;22.80;53.80;;;;;;31218052;28;20049;-45
2021/09/29 21:22:42;;;;;;;20.40;16.35;;;22.80;53.70;;;;;;31240701;28;20097;-48
2021/09/29 23:39:45;;;;;;;33.78;27.92;;;22.70;54.20;;;;;;31238154;28;20093;-57
2021/09/29 23:54:47;;;;;;;35.20;29.02;;;22.60;54.20;;;;;;31183119;28;20038;-57
